Time;durP1;ratioP1;P1;durP2;ratioP2;P2;SDS_P1;SDS_P2;PMS_P1;PMS_P2;Temp;Humidity;BMP_temperature;BMP_pressure;BME280_temperature;BME280_humidity;BME280_pressure;Samples;Min_cycle;Max_cycle;Signal;HPM_P1;HPM_P2
2022/04/01 00:01:02;;;;;;;20.45;10.07;;;;;;;9.41;100.00;98026.69;5556243;32;34388;-69
2022/04/01 00:04:05;;;;;;;18.12;9.48;;;;;;;9.36;100.00;98031.81;5570020;32;33910;-69
2022/04/01 00:07:08;;;;;;;17.42;9.35;;;;;;;9.43;100.00;98018.53;5569841;32;34092;-69
2022/04/01 00:10:12;;;;;;;18.67;9.30;;;;;;;9.45;100.00;98008.53;5556673;32;34676;-69
2022/04/01 00:13:14;;;;;;;17.98;8.98;;;;;;;9.43;100.00;98016.72;5569755;32;34611;-70
2022/04/01 00:16:17;;;;;;;21.40;9.88;;;;;;;9.49;100.00;98012.34;5569682;32;34138;-71
2022/04/01 00:19:20;;;;;;;17.98;9.88;;;;;;;9.52;100.00;98019.87;5569717;32;34559;-70
2022/04/01 00:22:23;;;;;;;21.70;9.93;;;;;;;9.46;100.00;98024.22;5569891;32;34308;-70
2022/04/01 00:25:25;;;;;;;16.70;9.05;;;;;;;9.41;100.00;98015.28;5569709;32;34017;-69
2022/04/01 00:28:28;;;;;;;20.92;9.13;;;;;;;9.47;100.00;98009.94;5555852;32;34551;-71
2022/04/01 00:31:32;;;;;;;17.48;9.27;;;;;;;9.46;100.00;98010.16;5569439;32;34746;-70
2022/04/01 00:34:36;;;;;;;21.58;10.15;;;;;;;9.49;100.00;98005.22;5569846;32;34051;-70
2022/04/01 00:37:40;;;;;;;26.92;10.18;;;;;;;9.47;100.00;98007.31;5569455;32;34094;-72
2022/04/01 00:40:43;;;;;;;22.35;9.68;;;;;;;9.52;100.00;98006.66;5569826;32;34005;-69
2022/04/01 00:43:45;;;;;;;19.15;9.75;;;;;;;9.40;100.00;98005.72;5555795;32;34184;-69
2022/04/01 00:46:51;;;;;;;18.23;9.82;;;;;;;9.46;100.00;97999.56;5569209;32;34347;-70
2022/04/01 00:49:55;;;;;;;22.52;9.98;;;;;;;9.31;100.00;97999.09;5569308;32;34007;-69
2022/04/01 00:53:01;;;;;;;22.40;9.90;;;;;;;9.38;100.00;97989.28;5569625;32;34687;-69
2022/04/01 00:56:04;;;;;;;22.52;9.95;;;;;;;9.31;100.00;97993.81;5568937;32;35185;-69
2022/04/01 00:59:08;;;;;;;25.25;11.10;;;;;;;9.33;100.00;97992.59;5555856;32;34039;-69
2022/04/01 01:02:11;;;;;;;26.05;11.12;;;;;;;9.32;100.00;97998.09;5569272;32;33907;-69
2022/04/01 01:05:13;;;;;;;18.58;9.93;;;;;;;9.53;100.00;97995.03;5569021;32;33995;-69
2022/04/01 01:08:16;;;;;;;25.02;10.50;;;;;;;9.62;100.00;97987.63;5569059;32;34561;-70
2022/04/01 01:11:20;;;;;;;19.37;10.90;;;;;;;9.39;100.00;97990.91;5569135;32;33983;-70
2022/04/01 01:14:41;;;;;;;23.33;10.30;;;;;;;9.34;100.00;97998.69;5569252;32;34585;-70
2022/04/01 01:17:45;;;;;;;18.58;9.75;;;;;;;9.45;100.00;98003.25;5568781;32;34095;-70
2022/04/01 01:20:49;;;;;;;24.30;10.32;;;;;;;9.39;100.00;98001.50;5569363;32;35241;-70
2022/04/01 01:23:55;;;;;;;18.75;9.85;;;;;;;9.37;100.00;97995.59;5568979;32;33889;-70
2022/04/01 01:27:00;;;;;;;19.87;10.20;;;;;;;9.31;100.00;97986.69;5568866;32;34013;-69
2022/04/01 01:30:04;;;;;;;18.58;9.55;;;;;;;9.45;100.00;97990.81;5568481;32;33919;-69
2022/04/01 01:33:07;;;;;;;26.77;10.38;;;;;;;9.40;100.00;97987.22;5568546;32;35302;-69
2022/04/01 01:36:12;;;;;;;23.10;10.38;;;;;;;9.38;100.00;97987.44;5568441;32;34043;-69
2022/04/01 01:39:14;;;;;;;19.98;9.50;;;;;;;9.38;100.00;97984.81;5568574;32;33979;-70
2022/04/01 01:42:18;;;;;;;20.65;10.60;;;;;;;9.43;100.00;97987.59;5568501;32;34313;-70
2022/04/01 01:45:21;;;;;;;19.55;9.52;;;;;;;9.39;100.00;97982.97;5568803;32;34514;-70
2022/04/01 01:48:24;;;;;;;16.55;9.00;;;;;;;9.49;100.00;97989.34;5568330;32;34780;-69
2022/04/01 01:54:52;;;;;;;19.75;10.25;;;;;;;9.62;100.00;97980.50;5568365;32;34625;-69
2022/04/01 01:57:56;;;;;;;18.95;9.20;;;;;;;9.50;100.00;97990.97;5568542;32;34734;-69
2022/04/01 02:00:59;;;;;;;18.33;9.32;;;;;;;9.44;100.00;97988.41;5568128;32;34519;-69
2022/04/01 02:04:03;;;;;;;15.93;8.40;;;;;;;9.45;100.00;97982.06;5568047;32;34608;-69
2022/04/01 02:07:06;;;;;;;19.55;9.48;;;;;;;9.50;100.00;97975.09;5568135;32;34015;-69
2022/04/01 02:10:09;;;;;;;18.25;9.20;;;;;;;9.44;100.00;97985.78;5570648;32;34281;-69
2022/04/01 02:13:14;;;;;;;30.80;9.02;;;;;;;9.45;100.00;97990.00;5570741;32;34672;-69
2022/04/01 02:16:19;;;;;;;20.80;9.48;;;;;;;9.41;100.00;97984.34;5570673;32;34047;-69
2022/04/01 02:19:24;;;;;;;18.33;9.30;;;;;;;9.52;100.00;97977.53;5570521;32;34118;-69
2022/04/01 02:22:28;;;;;;;19.33;9.85;;;;;;;9.45;100.00;97985.53;5570609;32;33967;-69
2022/04/01 02:25:31;;;;;;;22.37;9.73;;;;;;;9.51;100.00;97982.03;5570581;32;34610;-69
2022/04/01 02:28:35;;;;;;;18.62;8.70;;;;;;;9.39;100.00;97967.09;5559568;32;231650;-70
2022/04/01 02:31:37;;;;;;;19.75;8.55;;;;;;;9.53;100.00;97972.03;5560750;32;34025;-70
2022/04/01 02:34:45;;;;;;;14.80;9.10;;;;;;;9.44;100.00;97968.03;5570840;32;33961;-70
2022/04/01 02:37:48;;;;;;;19.23;9.25;;;;;;;9.40;100.00;97979.28;5570639;32;34077;-70
2022/04/01 02:40:55;;;;;;;15.95;8.57;;;;;;;9.44;100.00;97969.91;5570101;32;34788;-70
2022/04/01 02:44:08;;;;;;;18.10;9.45;;;;;;;9.45;100.00;97968.84;5570380;32;34586;-71
2022/04/01 02:47:12;;;;;;;16.15;8.55;;;;;;;9.35;100.00;97963.25;5570460;32;34010;-70
2022/04/01 02:50:16;;;;;;;14.27;8.13;;;;;;;9.38;100.00;97955.69;5570191;32;34257;-70
2022/04/01 02:53:19;;;;;;;17.73;8.10;;;;;;;9.27;100.00;97953.75;5570181;32;33986;-70
2022/04/01 02:56:23;;;;;;;19.55;8.48;;;;;;;9.21;100.00;97954.62;5570113;32;34769;-69
2022/04/01 02:59:25;;;;;;;14.20;8.35;;;;;;;9.28;100.00;97950.09;5570082;32;34563;-69
2022/04/01 03:02:29;;;;;;;14.82;8.07;;;;;;;9.32;100.00;97948.63;5569892;32;34138;-69
2022/04/01 03:05:36;;;;;;;14.43;7.68;;;;;;;9.32;100.00;97951.28;5569896;32;34073;-69
2022/04/01 03:08:40;;;;;;;16.83;7.78;;;;;;;9.40;100.00;97944.88;5570034;32;33854;-69
2022/04/01 03:11:46;;;;;;;13.02;7.37;;;;;;;9.38;100.00;97947.75;5569765;32;34593;-69
2022/04/01 03:14:51;;;;;;;13.85;7.10;;;;;;;9.32;100.00;97945.16;5569756;32;34732;-69
2022/04/01 03:17:59;;;;;;;13.60;7.22;;;;;;;9.30;100.00;97953.31;5570311;32;33940;-69
2022/04/01 03:21:03;;;;;;;14.20;7.25;;;;;;;9.24;100.00;97956.03;5569893;32;34235;-69
2022/04/01 03:24:09;;;;;;;14.27;7.10;;;;;;;9.24;100.00;97948.91;5569902;32;34318;-69
2022/04/01 03:27:14;;;;;;;13.40;7.62;;;;;;;9.21;100.00;97944.03;5569962;32;33966;-69
2022/04/01 03:30:18;;;;;;;13.15;7.28;;;;;;;9.18;100.00;97943.69;5569749;32;34202;-69
2022/04/01 03:33:21;;;;;;;13.82;7.10;;;;;;;9.21;100.00;97956.47;5569648;32;34633;-70
2022/04/01 03:36:24;;;;;;;14.73;6.78;;;;;;;9.14;100.00;97956.53;5569653;32;34053;-70
2022/04/01 03:39:27;;;;;;;12.68;6.87;;;;;;;9.15;100.00;97974.81;5570034;32;34286;-70
2022/04/01 03:42:32;;;;;;;10.10;6.90;;;;;;;9.15;100.00;97974.00;5570263;32;34573;-70
2022/04/01 03:45:35;;;;;;;16.15;6.78;;;;;;;9.25;100.00;97963.75;5570201;32;34205;-70
2022/04/01 03:48:46;;;;;;;11.05;6.75;;;;;;;9.49;100.00;97948.84;5569744;32;33856;-70
2022/04/01 03:51:50;;;;;;;;;;;;;;;9.35;100.00;97936.78;5569564;32;35460;-70
2022/04/01 03:54:59;;;;;;;12.27;6.97;;;;;;;9.19;100.00;97955.88;5569825;32;34371;-69
2022/04/01 03:58:12;;;;;;;10.48;6.43;;;;;;;9.14;100.00;97954.72;5569486;32;33981;-69
2022/04/01 04:01:17;;;;;;;11.93;6.68;;;;;;;9.18;100.00;97960.38;5556491;32;33956;-69
2022/04/01 04:04:21;;;;;;;10.45;6.55;;;;;;;9.28;100.00;97955.38;5569428;32;34008;-69
2022/04/01 04:07:25;;;;;;;11.48;7.20;;;;;;;9.24;100.00;97956.03;5555673;32;34322;-69
2022/04/01 04:10:29;;;;;;;7.97;5.75;;;;;;;9.32;100.00;97953.09;5556014;32;34649;-69
2022/04/01 04:13:37;;;;;;;9.77;5.75;;;;;;;9.29;100.00;97951.72;5569305;32;34214;-69
2022/04/01 04:16:46;;;;;;;12.05;5.93;;;;;;;9.37;100.00;97947.97;5556125;32;33918;-69
2022/04/01 04:20:15;;;;;;;12.77;6.57;;;;;;;9.37;100.00;97951.44;5569484;32;34419;-69
2022/04/01 04:23:31;;;;;;;11.12;6.22;;;;;;;9.42;100.00;97951.56;5569389;32;34962;-69
2022/04/01 04:26:39;;;;;;;9.70;6.43;;;;;;;9.46;100.00;97952.75;5569960;32;33942;-69
2022/04/01 04:29:51;;;;;;;10.82;6.55;;;;;;;9.41;100.00;97954.44;5569017;31;34852;-69
2022/04/01 04:33:01;;;;;;;11.43;6.75;;;;;;;9.45;100.00;97926.50;5569013;32;34713;-70
2022/04/01 04:36:05;;;;;;;12.52;7.03;;;;;;;9.35;100.00;97920.91;5555794;32;33999;-70
2022/04/01 04:39:15;;;;;;;13.00;7.12;;;;;;;9.37;100.00;97921.50;5569209;32;34637;-69
2022/04/01 04:42:21;;;;;;;11.75;7.00;;;;;;;9.29;100.00;97919.97;5569274;32;34429;-69
2022/04/01 04:45:25;;;;;;;13.07;7.30;;;;;;;9.33;100.00;97920.34;5569023;32;34769;-69
2022/04/01 04:48:29;;;;;;;12.10;6.90;;;;;;;9.34;100.00;97921.97;5568826;32;34122;-69
2022/04/01 04:51:33;;;;;;;14.30;7.12;;;;;;;9.32;100.00;97931.94;5569313;32;34556;-69
2022/04/01 04:54:40;;;;;;;14.13;7.72;;;;;;;9.32;100.00;97931.94;5569213;32;34177;-70
2022/04/01 04:57:46;;;;;;;15.00;7.25;;;;;;;9.29;100.00;97941.13;5555685;32;34141;-71
2022/04/01 05:01:00;;;;;;;12.10;6.53;;;;;;;9.37;100.00;97932.09;5568849;32;33863;-68
2022/04/01 05:04:19;;;;;;;14.77;8.05;;;;;;;9.39;100.00;97940.63;5568946;32;34302;-69
2022/04/01 05:07:44;;;;;;;12.88;7.10;;;;;;;9.39;100.00;97953.88;5568659;32;34000;-70
2022/04/01 05:11:16;;;;;;;13.52;8.00;;;;;;;9.37;100.00;97946.13;5569115;32;34439;-71
2022/04/01 05:14:31;;;;;;;12.60;7.15;;;;;;;9.32;100.00;97948.63;5555003;32;33882;-70
2022/04/01 05:17:37;;;;;;;9.15;6.25;;;;;;;9.38;100.00;97950.41;5568300;32;34046;-72
2022/04/01 05:21:00;;;;;;;10.48;6.65;;;;;;;9.33;100.00;97954.72;5568544;32;34719;-70
2022/04/01 05:24:06;;;;;;;9.70;6.18;;;;;;;9.30;100.00;97955.16;5568548;32;34002;-69
2022/04/01 05:27:24;;;;;;;8.65;5.30;;;;;;;9.32;100.00;97958.41;5568527;32;34933;-70
2022/04/01 05:30:37;;;;;;;11.77;6.32;;;;;;;9.31;100.00;97970.81;5554936;32;34706;-69
2022/04/01 05:33:52;;;;;;;8.65;5.78;;;;;;;9.30;100.00;97969.19;5554569;32;34703;-69
2022/04/01 05:36:57;;;;;;;10.10;5.80;;;;;;;9.35;100.00;97965.87;5568523;32;34312;-72
2022/04/01 05:40:05;;;;;;;10.93;5.45;;;;;;;9.39;100.00;97959.94;5568115;32;34505;-70
2022/04/01 05:43:13;;;;;;;9.63;6.32;;;;;;;9.37;100.00;97962.00;5569710;32;34132;-70
2022/04/01 05:46:22;;;;;;;10.40;6.20;;;;;;;9.23;100.00;97957.87;5570130;32;34655;-70
2022/04/01 05:49:26;;;;;;;9.88;6.20;;;;;;;9.21;100.00;97961.75;5556344;32;32659;-69
2022/04/01 05:52:32;;;;;;;12.02;5.90;;;;;;;9.18;100.00;97952.44;5544418;32;34011;-70
2022/04/01 05:55:39;;;;;;;12.52;5.95;;;;;;;9.20;100.00;97954.88;5569856;32;34062;-71
2022/04/01 05:58:42;;;;;;;12.77;6.70;;;;;;;9.27;100.00;97951.13;5569914;32;34762;-70
2022/04/01 06:02:07;;;;;;;10.85;6.07;;;;;;;9.22;100.00;97948.31;5570309;32;34569;-70
2022/04/01 06:05:19;;;;;;;10.13;5.40;;;;;;;9.31;100.00;97948.84;5570202;32;34422;-70
2022/04/01 06:08:44;;;;;;;7.80;5.50;;;;;;;9.22;100.00;97950.16;5570178;32;34807;-70
2022/04/01 06:12:02;;;;;;;8.35;5.32;;;;;;;9.21;100.00;97951.16;5569902;32;33874;-69
2022/04/01 06:15:21;;;;;;;8.65;5.37;;;;;;;9.24;100.00;97953.41;5570058;32;34269;-70
2022/04/01 06:18:56;;;;;;;9.75;6.28;;;;;;;9.31;100.00;97959.41;5570374;32;33861;-69
2022/04/01 06:22:06;;;;;;;8.00;5.85;;;;;;;9.26;100.00;97952.13;5570251;32;34610;-70
2022/04/01 06:25:15;;;;;;;9.10;5.40;;;;;;;9.34;100.00;97957.16;5570110;32;33948;-70
2022/04/01 06:28:28;;;;;;;9.05;5.40;;;;;;;9.31;100.00;97954.94;5556436;31;34073;-70
2022/04/01 06:31:31;;;;;;;9.75;5.57;;;;;;;9.46;100.00;97954.59;5570015;32;34976;-70
2022/04/01 06:34:50;;;;;;;8.95;5.32;;;;;;;9.43;100.00;97960.34;5555868;32;34360;-71
2022/04/01 06:37:58;;;;;;;10.27;5.55;;;;;;;9.38;100.00;97957.53;5570269;32;34758;-70
2022/04/01 06:41:19;;;;;;;9.02;5.57;;;;;;;9.38;100.00;97957.53;5569882;32;34488;-70
2022/04/01 06:44:23;;;;;;;9.63;5.95;;;;;;;9.31;100.00;97960.22;5569952;32;34075;-70
2022/04/01 06:47:30;;;;;;;9.98;5.87;;;;;;;9.30;100.00;97953.31;5556796;32;34628;-70
2022/04/01 06:50:33;;;;;;;10.43;5.93;;;;;;;9.37;100.00;97956.72;5543382;32;35241;-69
2022/04/01 06:53:37;;;;;;;10.90;6.72;;;;;;;9.45;100.00;97958.25;5569514;32;34622;-69
2022/04/01 06:56:44;;;;;;;8.52;5.68;;;;;;;9.47;100.00;97964.97;5556154;32;32532;-69
2022/04/01 06:59:49;;;;;;;8.85;5.68;;;;;;;9.50;100.00;97969.00;5570336;32;34396;-69
2022/04/01 07:02:53;;;;;;;8.38;5.35;;;;;;;9.47;100.00;97974.75;5570034;32;34387;-70
2022/04/01 07:05:56;;;;;;;8.10;4.45;;;;;;;9.51;100.00;97974.06;5556706;32;35406;-69
2022/04/01 07:08:59;;;;;;;7.07;4.47;;;;;;;9.48;100.00;97977.19;5570084;32;34043;-70
2022/04/01 07:12:03;;;;;;;6.97;4.18;;;;;;;9.39;100.00;97975.81;5556403;32;33973;-70
2022/04/01 07:15:10;;;;;;;5.82;3.60;;;;;;;9.35;100.00;97973.81;5569741;32;34523;-70
2022/04/01 07:18:15;;;;;;;6.55;3.60;;;;;;;9.39;100.00;97982.97;5543272;32;32547;-70
2022/04/01 07:21:18;;;;;;;7.53;3.78;;;;;;;9.32;100.00;97976.91;5569730;32;34126;-70
2022/04/01 07:24:21;;;;;;;5.65;3.58;;;;;;;9.32;100.00;97972.44;5569637;32;34610;-71
2022/04/01 07:27:29;;;;;;;4.90;2.90;;;;;;;9.28;100.00;97981.03;5569714;32;34046;-71
2022/04/01 07:30:31;;;;;;;4.55;2.95;;;;;;;9.13;100.00;97971.59;5569793;32;33912;-70
2022/04/01 07:33:35;;;;;;;5.65;2.80;;;;;;;9.21;100.00;97962.56;5569336;32;35438;-70
2022/04/01 07:36:38;;;;;;;5.28;2.78;;;;;;;9.42;100.00;97969.28;5569743;32;34595;-70
2022/04/01 07:39:41;;;;;;;3.90;2.40;;;;;;;9.34;100.00;97970.41;5556020;32;33983;-70
2022/04/01 07:42:44;;;;;;;5.12;2.80;;;;;;;9.42;100.00;97964.00;5569538;32;33957;-71
2022/04/01 07:45:47;;;;;;;3.40;2.40;;;;;;;9.32;100.00;97964.50;5569631;32;33862;-70
2022/04/01 07:48:51;;;;;;;4.22;2.17;;;;;;;9.39;100.00;97967.09;5556211;32;34195;-70
2022/04/01 07:51:54;;;;;;;4.18;2.33;;;;;;;9.38;100.00;97971.56;5569734;32;34115;-69
2022/04/01 07:54:57;;;;;;;3.70;2.15;;;;;;;9.44;100.00;97973.31;5569539;32;34689;-70
2022/04/01 07:58:00;;;;;;;3.25;2.10;;;;;;;9.39;100.00;97973.16;5569450;32;34028;-69
2022/04/01 08:01:23;;;;;;;2.33;1.90;;;;;;;9.50;100.00;97980.41;5569541;32;34210;-70
2022/04/01 08:04:26;;;;;;;3.75;2.12;;;;;;;9.44;100.00;97981.25;5569694;32;34221;-72
2022/04/01 08:07:29;;;;;;;2.20;1.70;;;;;;;9.49;100.00;97981.41;5568923;32;34000;-71
2022/04/01 08:10:33;;;;;;;6.43;2.30;;;;;;;9.39;100.00;97989.03;5569343;32;34303;-70
2022/04/01 08:13:36;;;;;;;2.58;1.98;;;;;;;9.29;100.00;97988.75;5555700;32;34662;-72
2022/04/01 08:16:39;;;;;;;2.90;2.35;;;;;;;9.15;100.00;98000.44;5569395;32;34079;-72
2022/04/01 08:19:43;;;;;;;3.40;2.37;;;;;;;9.00;100.00;98005.28;5569525;32;34381;-71
2022/04/01 08:22:46;;;;;;;9.23;2.65;;;;;;;8.94;100.00;98009.59;5569342;32;34127;-72
2022/04/01 08:25:53;;;;;;;4.07;2.70;;;;;;;8.89;100.00;98009.44;5569146;32;34769;-72
2022/04/01 08:28:56;;;;;;;3.17;2.28;;;;;;;8.80;100.00;98015.19;5555525;32;34198;-70
2022/04/01 08:31:59;;;;;;;3.47;2.45;;;;;;;8.81;100.00;98016.81;5569141;32;34484;-70
2022/04/01 08:35:07;;;;;;;3.72;2.17;;;;;;;8.75;100.00;98013.19;5569021;32;34261;-71
2022/04/01 08:38:10;;;;;;;2.53;1.50;;;;;;;8.76;100.00;98019.28;5568984;32;34218;-71
2022/04/01 08:41:19;;;;;;;2.00;1.70;;;;;;;8.58;100.00;98017.34;5555277;32;33621;-70
2022/04/01 08:44:22;;;;;;;3.20;1.90;;;;;;;8.44;100.00;98029.00;5569242;32;34051;-70
2022/04/01 08:47:26;;;;;;;2.37;1.90;;;;;;;8.40;100.00;98031.28;5555378;32;34028;-70
2022/04/01 08:50:29;;;;;;;2.70;1.48;;;;;;;8.38;100.00;98038.59;5568831;32;34160;-70
2022/04/01 08:53:37;;;;;;;1.95;1.50;;;;;;;8.21;100.00;98040.88;5555692;32;34822;-70
2022/04/01 08:56:40;;;;;;;2.75;1.95;;;;;;;8.13;100.00;98046.38;5555108;32;34584;-70
2022/04/01 08:59:42;;;;;;;2.33;1.92;;;;;;;8.05;100.00;98043.97;5568830;32;34045;-71
2022/04/01 09:02:59;;;;;;;4.55;2.37;;;;;;;8.05;100.00;98053.72;5568620;32;34003;-71
2022/04/01 09:06:05;;;;;;;2.50;1.65;;;;;;;7.94;100.00;98055.19;5555384;32;34168;-70
2022/04/01 09:09:21;;;;;;;1.75;1.45;;;;;;;7.96;100.00;98052.34;5569068;32;33929;-70
2022/04/01 09:12:25;;;;;;;2.45;1.40;;;;;;;8.01;100.00;98049.87;5568527;32;34150;-70
2022/04/01 09:15:40;;;;;;;1.55;1.40;;;;;;;8.14;100.00;98055.13;5554839;32;34240;-70
2022/04/01 09:18:46;;;;;;;2.03;1.52;;;;;;;8.22;100.00;98054.91;5568029;32;34032;-70
2022/04/01 09:21:49;;;;;;;3.87;1.33;;;;;;;8.30;100.00;98067.91;5568451;32;34728;-70
2022/04/01 09:24:57;;;;;;;2.28;1.08;;;;;;;8.38;100.00;98059.72;5568223;32;33963;-69
2022/04/01 09:28:00;;;;;;;1.70;0.90;;;;;;;8.23;100.00;98065.25;5568323;32;34057;-71
2022/04/01 09:31:10;;;;;;;5.20;1.58;;;;;;;8.17;100.00;98063.47;5554713;32;33946;-71
2022/04/01 09:34:40;;;;;;;1.65;1.00;;;;;;;8.27;100.00;98065.66;5568153;32;34715;-70
2022/04/01 09:37:46;;;;;;;1.60;1.20;;;;;;;8.31;100.00;98063.44;5568068;32;34479;-69
2022/04/01 09:40:50;;;;;;;1.87;0.93;;;;;;;8.45;100.00;98068.44;5568248;32;34489;-69
2022/04/01 09:44:04;;;;;;;1.67;1.00;;;;;;;8.58;100.00;98070.19;5568156;32;34675;-70
2022/04/01 09:47:07;;;;;;;2.67;1.40;;;;;;;8.67;100.00;98075.03;5567986;32;34533;-69
2022/04/01 09:50:13;;;;;;;1.67;1.12;;;;;;;8.70;100.00;98074.63;5568476;32;34222;-69
2022/04/01 09:53:22;;;;;;;2.42;1.20;;;;;;;8.31;100.00;98071.34;5568270;32;34333;-70
2022/04/01 09:56:58;;;;;;;1.48;1.30;;;;;;;8.25;100.00;98070.31;5554405;32;34680;-70
2022/04/01 10:00:05;;;;;;;2.00;1.40;;;;;;;8.30;100.00;98073.19;5554472;32;34363;-70
2022/04/01 10:03:16;;;;;;;2.50;1.40;;;;;;;8.08;100.00;98082.38;5567966;32;34059;-69
2022/04/01 10:06:22;;;;;;;2.05;1.50;;;;;;;7.96;100.00;98089.31;5567873;32;33930;-69
2022/04/01 10:09:34;;;;;;;1.87;1.45;;;;;;;7.93;100.00;98079.16;5554984;32;34531;-70
2022/04/01 10:13:02;;;;;;;4.28;2.60;;;;;;;7.78;100.00;98089.97;5567670;32;34672;-69
2022/04/01 10:16:09;;;;;;;2.17;1.80;;;;;;;7.72;100.00;98085.50;5567794;32;34643;-71
2022/04/01 10:19:29;;;;;;;2.72;2.08;;;;;;;7.76;100.00;98086.69;5567644;32;34073;-69
2022/04/01 10:22:33;;;;;;;3.47;2.17;;;;;;;7.85;100.00;98088.91;5567496;32;34747;-71
2022/04/01 10:25:42;;;;;;;2.17;1.65;;;;;;;7.82;100.00;98086.69;5567660;32;33996;-71
2022/04/01 10:28:47;;;;;;;2.62;2.10;;;;;;;7.92;100.00;98088.09;5568489;32;34017;-71
2022/04/01 10:31:54;;;;;;;2.65;2.25;;;;;;;8.05;100.00;98095.97;5570668;32;33962;-71
2022/04/01 10:35:01;;;;;;;3.20;1.90;;;;;;;8.14;100.00;98106.09;5570271;32;34545;-71
2022/04/01 10:38:08;;;;;;;2.90;2.10;;;;;;;8.17;100.00;98112.81;5570465;32;33949;-70
2022/04/01 10:41:12;;;;;;;2.70;1.90;;;;;;;8.02;100.00;98104.31;5570128;32;35439;-71
2022/04/01 10:44:16;;;;;;;3.80;2.20;;;;;;;7.82;100.00;98122.84;5570003;32;33935;-70
2022/04/01 10:47:21;;;;;;;3.87;1.90;;;;;;;7.74;100.00;98117.78;5570359;32;34671;-71
2022/04/01 10:53:46;;;;;;;3.67;2.83;;;;;;;7.70;100.00;98114.72;5570118;32;33933;-71
2022/04/01 10:57:00;;;;;;;4.32;2.78;;;;;;;7.95;100.00;98125.44;5556485;32;34560;-69
2022/04/01 11:00:08;;;;;;;3.47;2.80;;;;;;;7.92;100.00;98127.69;5556432;32;34629;-72
2022/04/01 11:03:23;;;;;;;4.70;2.70;;;;;;;8.14;100.00;98129.88;5569695;32;34761;-69
2022/04/01 11:06:27;;;;;;;3.55;2.53;;;;;;;8.27;100.00;98134.34;5570126;32;34628;-69
2022/04/01 11:09:34;;;;;;;3.92;2.20;;;;;;;7.86;100.00;98134.59;5569914;32;33891;-71
2022/04/01 11:12:50;;;;;;;3.80;2.22;;;;;;;7.89;100.00;98134.19;5569639;32;34786;-69
2022/04/01 11:16:21;;;;;;;4.25;2.83;;;;;;;7.90;100.00;98135.00;5569968;32;34147;-70
2022/04/01 11:19:27;;;;;;;4.40;2.95;;;;;;;7.92;100.00;98133.78;5570104;32;34172;-71
2022/04/01 11:22:58;;;;;;;5.32;3.62;;;;;;;7.66;100.00;98145.16;5569953;32;35231;-72
2022/04/01 11:26:01;;;;;;;4.40;3.50;;;;;;;7.55;100.00;98145.78;5567675;32;34595;-71
2022/04/01 11:29:16;;;;;;;6.72;4.18;;;;;;;7.80;100.00;98140.69;5569682;32;34616;-70
2022/04/01 11:32:20;;;;;;;5.57;3.40;;;;;;;8.05;100.00;98136.41;5570016;32;34075;-70
2022/04/01 11:35:25;;;;;;;8.48;3.20;;;;;;;8.05;100.00;98139.03;5569810;32;34221;-69
2022/04/01 11:38:32;;;;;;;4.03;3.00;;;;;;;7.87;100.00;98144.16;5569855;32;34114;-71
2022/04/01 11:41:51;;;;;;;4.62;3.12;;;;;;;7.82;100.00;98144.78;5569832;32;34041;-71
2022/04/01 11:44:58;;;;;;;4.62;2.78;;;;;;;7.73;100.00;98145.19;5569672;32;34183;-70
2022/04/01 11:48:34;;;;;;;5.37;3.40;;;;;;;7.49;100.00;98143.97;5569891;32;34423;-70
2022/04/01 11:51:38;;;;;;;4.62;3.62;;;;;;;7.56;100.00;98139.50;5569339;32;34072;-72
2022/04/01 11:54:47;;;;;;;4.97;3.83;;;;;;;7.71;100.00;98142.75;5569783;32;33909;-70
2022/04/01 11:57:52;;;;;;;5.10;3.65;;;;;;;7.69;100.00;98139.50;5569650;32;34201;-70
2022/04/01 12:00:55;;;;;;;6.47;3.60;;;;;;;7.67;100.00;98136.25;5555975;32;34087;-70
2022/04/01 12:04:09;;;;;;;4.70;3.62;;;;;;;7.54;100.00;98144.16;5569502;32;33913;-70
2022/04/01 12:10:35;;;;;;;6.87;4.37;;;;;;;7.39;100.00;98143.56;5569500;32;34031;-69
2022/04/01 12:13:48;;;;;;;5.55;3.58;;;;;;;7.59;100.00;98152.28;5569445;32;35219;-68
2022/04/01 12:16:52;;;;;;;7.45;4.07;;;;;;;7.64;100.00;98149.84;5569465;32;34255;-68
2022/04/01 12:20:10;;;;;;;5.90;4.40;;;;;;;7.98;100.00;98146.19;5569263;32;34654;-68
2022/04/01 12:23:32;;;;;;;5.93;3.80;;;;;;;8.96;100.00;98160.09;5569634;32;34030;-68
2022/04/01 12:26:35;;;;;;;6.50;3.85;;;;;;;8.57;100.00;98159.25;5569573;32;35457;-68
2022/04/01 12:29:44;;;;;;;4.28;3.40;;;;;;;8.64;100.00;98169.78;5569192;32;34172;-69
2022/04/01 12:32:59;;;;;;;6.00;3.55;;;;;;;8.89;100.00;98172.53;5569339;32;33921;-69
2022/04/01 12:36:07;;;;;;;5.65;3.75;;;;;;;9.74;100.00;98176.47;5569476;32;33929;-69
2022/04/01 12:39:12;;;;;;;6.47;3.67;;;;;;;10.02;100.00;98177.66;5569306;32;34211;-68
2022/04/01 12:42:19;;;;;;;4.47;3.37;;;;;;;10.13;100.00;98178.78;5569585;32;33990;-67
2022/04/01 12:45:22;;;;;;;5.20;3.97;;;;;;;9.49;100.00;98182.56;5568961;32;34312;-69
2022/04/01 12:48:26;;;;;;;5.03;3.37;;;;;;;8.99;100.00;98186.13;5568674;32;34605;-69
2022/04/01 12:51:29;;;;;;;5.35;3.95;;;;;;;8.77;100.00;98190.06;5554400;32;33929;-69
2022/04/01 12:54:33;;;;;;;6.57;4.00;;;;;;;8.67;100.00;98199.25;5569284;32;33976;-70
2022/04/01 12:57:36;;;;;;;6.18;4.22;;;;;;;8.61;100.00;98202.75;5569252;32;33941;-70
2022/04/01 13:00:39;;;;;;;8.48;4.18;;;;;;;8.13;100.00;98201.41;5569500;32;35267;-71
2022/04/01 13:03:46;;;;;;;6.22;4.87;;;;;;;8.09;100.00;98197.53;5569347;32;33963;-69
2022/04/01 13:07:10;;;;;;;7.65;5.00;;;;;;;8.26;100.00;98201.38;5568814;32;34125;-70
2022/04/01 13:10:15;;;;;;;6.57;4.70;;;;;;;8.15;100.00;98209.91;5568889;32;34169;-70
2022/04/01 13:13:20;;;;;;;7.82;5.90;;;;;;;8.05;100.00;98207.69;5569009;32;34085;-69
2022/04/01 13:16:23;;;;;;;8.55;6.30;;;;;;;7.90;100.00;98207.09;5568838;32;34195;-70
2022/04/01 13:19:32;;;;;;;9.48;6.43;;;;;;;7.81;100.00;98206.47;5568374;32;34045;-68
2022/04/01 13:22:36;;;;;;;8.65;6.12;;;;;;;7.79;100.00;98208.50;5554919;32;34460;-71
2022/04/01 13:25:40;;;;;;;7.90;6.03;;;;;;;8.02;100.00;98223.16;5568697;32;34107;-67
2022/04/01 13:28:43;;;;;;;8.48;6.28;;;;;;;7.84;100.00;98221.91;5568009;32;34734;-68
2022/04/01 13:31:49;;;;;;;8.40;6.37;;;;;;;8.03;100.00;98211.56;5568433;32;34123;-69
2022/04/01 13:34:52;;;;;;;9.10;7.50;;;;;;;8.49;100.00;98219.44;5568415;32;34080;-69
2022/04/01 13:37:55;;;;;;;8.35;7.03;;;;;;;8.51;100.00;98217.41;5568174;32;34684;-71
2022/04/01 13:40:59;;;;;;;9.63;7.12;;;;;;;8.14;100.00;98217.03;5568255;32;33900;-71
2022/04/01 13:44:04;;;;;;;8.88;6.93;;;;;;;8.19;100.00;98221.69;5568270;32;35192;-69
2022/04/01 13:47:14;;;;;;;9.60;6.85;;;;;;;8.11;100.00;98216.63;5568234;32;35220;-68
2022/04/01 13:50:19;;;;;;;9.90;7.65;;;;;;;8.34;100.00;98229.44;5568043;32;34608;-68
2022/04/01 13:53:26;;;;;;;9.60;7.35;;;;;;;8.32;100.00;98218.28;5568104;32;34222;-69
2022/04/01 13:56:30;;;;;;;12.10;6.65;;;;;;;8.46;100.00;98209.31;5567797;32;34834;-69
2022/04/01 13:59:32;;;;;;;10.43;7.25;;;;;;;8.33;100.00;98222.53;5567995;32;34784;-70
2022/04/01 14:02:36;;;;;;;10.98;7.32;;;;;;;8.08;100.00;98214.41;5568238;32;34108;-67
2022/04/01 14:05:40;;;;;;;10.70;7.90;;;;;;;8.16;100.00;98215.00;5569946;32;34639;-69
2022/04/01 14:08:43;;;;;;;10.35;8.20;;;;;;;8.11;100.00;98217.44;5570254;32;33946;-69
2022/04/01 14:11:47;;;;;;;9.55;7.70;;;;;;;8.14;100.00;98222.31;5556880;32;33897;-69
2022/04/01 14:14:49;;;;;;;10.02;8.07;;;;;;;8.08;100.00;98228.44;5570354;32;34204;-68
2022/04/01 14:17:53;;;;;;;11.75;7.82;;;;;;;7.99;100.00;98236.75;5570033;32;33963;-69
2022/04/01 14:20:57;;;;;;;11.50;8.48;;;;;;;7.97;100.00;98234.31;5569968;32;34227;-68
2022/04/01 14:24:01;;;;;;;10.50;8.52;;;;;;;8.22;100.00;98245.88;5570437;32;34616;-69
2022/04/01 14:27:03;;;;;;;10.68;8.38;;;;;;;8.19;100.00;98256.84;5556402;32;34176;-69
2022/04/01 14:30:17;;;;;;;11.52;9.10;;;;;;;7.90;100.00;98259.88;5569729;32;34657;-69
2022/04/01 14:33:22;;;;;;;10.10;8.65;;;;;;;8.09;100.00;98248.50;5570054;32;33994;-68
2022/04/01 14:36:28;;;;;;;12.52;9.52;;;;;;;7.91;100.00;98258.06;5570327;32;33942;-69
2022/04/01 14:39:31;;;;;;;10.77;8.45;;;;;;;7.89;100.00;98260.91;5570081;32;33964;-69
2022/04/01 14:42:34;;;;;;;13.13;9.85;;;;;;;7.89;100.00;98268.03;5569926;32;33932;-69
2022/04/01 14:45:37;;;;;;;13.48;10.57;;;;;;;7.81;100.00;98263.75;5570087;32;34114;-68